sensor_id;sensor_type;location;lat;lon;timestamp;temperature;humidity
50586;DHT22;36542;51.700;8.846;2023-05-29T00:00:12;11.40;99.90
50586;DHT22;36542;51.700;8.846;2023-05-29T00:02:39;11.30;99.90
50586;DHT22;36542;51.700;8.846;2023-05-29T00:05:05;11.30;99.90
50586;DHT22;36542;51.700;8.846;2023-05-29T00:07:31;11.20;99.90
50586;DHT22;36542;51.700;8.846;2023-05-29T00:09:58;11.10;99.90
50586;DHT22;36542;51.700;8.846;2023-05-29T00:12:24;11.10;99.90
50586;DHT22;36542;51.700;8.846;2023-05-29T00:14:49;11.10;99.90
50586;DHT22;36542;51.700;8.846;2023-05-29T00:17:15;11.10;99.90
50586;DHT22;36542;51.700;8.846;2023-05-29T00:19:42;11.30;99.90
50586;DHT22;36542;51.700;8.846;2023-05-29T00:22:08;11.30;99.90
50586;DHT22;36542;51.700;8.846;2023-05-29T00:24:33;11.20;99.90
50586;DHT22;36542;51.700;8.846;2023-05-29T00:26:59;11.10;99.90
50586;DHT22;36542;51.700;8.846;2023-05-29T00:29:24;11.00;99.90
50586;DHT22;36542;51.700;8.846;2023-05-29T00:31:50;10.90;99.90
50586;DHT22;36542;51.700;8.846;2023-05-29T00:34:19;10.90;99.90
50586;DHT22;36542;51.700;8.846;2023-05-29T00:36:44;10.80;99.90
50586;DHT22;36542;51.700;8.846;2023-05-29T00:39:10;10.80;99.90
50586;DHT22;36542;51.700;8.846;2023-05-29T00:41:36;10.80;99.90
50586;DHT22;36542;51.700;8.846;2023-05-29T00:44:01;10.70;99.90
50586;DHT22;36542;51.700;8.846;2023-05-29T00:46:27;10.80;99.90
50586;DHT22;36542;51.700;8.846;2023-05-29T00:48:53;10.70;99.90
50586;DHT22;36542;51.700;8.846;2023-05-29T00:51:19;10.70;99.90
50586;DHT22;36542;51.700;8.846;2023-05-29T00:53:44;10.60;99.90
50586;DHT22;36542;51.700;8.846;2023-05-29T00:56:10;10.50;99.90
50586;DHT22;36542;51.700;8.846;2023-05-29T00:58:37;10.50;99.90
50586;DHT22;36542;51.700;8.846;2023-05-29T01:01:03;10.40;99.90
50586;DHT22;36542;51.700;8.846;2023-05-29T01:03:29;10.40;99.90
50586;DHT22;36542;51.700;8.846;2023-05-29T01:05:54;10.40;99.90
50586;DHT22;36542;51.700;8.846;2023-05-29T01:08:20;10.50;99.90
50586;DHT22;36542;51.700;8.846;2023-05-29T01:10:46;10.40;99.90
50586;DHT22;36542;51.700;8.846;2023-05-29T01:13:18;10.30;99.90
50586;DHT22;36542;51.700;8.846;2023-05-29T01:16:11;10.20;99.90
50586;DHT22;36542;51.700;8.846;2023-05-29T01:18:57;10.20;99.90
50586;DHT22;36542;51.700;8.846;2023-05-29T01:22:08;10.10;99.90
50586;DHT22;36542;51.700;8.846;2023-05-29T01:24:43;10.00;99.90
50586;DHT22;36542;51.700;8.846;2023-05-29T01:27:11;10.00;99.90
50586;DHT22;36542;51.700;8.846;2023-05-29T01:29:41;10.00;99.90
50586;DHT22;36542;51.700;8.846;2023-05-29T01:32:09;9.90;99.90
50586;DHT22;36542;51.700;8.846;2023-05-29T01:34:35;9.90;99.90
50586;DHT22;36542;51.700;8.846;2023-05-29T01:37:01;9.80;99.90
50586;DHT22;36542;51.700;8.846;2023-05-29T01:39:26;9.80;99.90
50586;DHT22;36542;51.700;8.846;2023-05-29T01:41:53;9.70;99.90
50586;DHT22;36542;51.700;8.846;2023-05-29T01:44:20;9.60;99.90
50586;DHT22;36542;51.700;8.846;2023-05-29T01:46:46;9.60;99.90
50586;DHT22;36542;51.700;8.846;2023-05-29T01:49:12;9.50;99.90
50586;DHT22;36542;51.700;8.846;2023-05-29T01:51:39;9.50;99.90
50586;DHT22;36542;51.700;8.846;2023-05-29T01:54:06;9.50;99.90
50586;DHT22;36542;51.700;8.846;2023-05-29T01:56:33;9.50;99.90
50586;DHT22;36542;51.700;8.846;2023-05-29T01:59:01;9.40;99.90
50586;DHT22;36542;51.700;8.846;2023-05-29T02:01:27;9.30;99.90
50586;DHT22;36542;51.700;8.846;2023-05-29T02:03:53;9.20;99.90
50586;DHT22;36542;51.700;8.846;2023-05-29T02:06:18;9.20;99.90
50586;DHT22;36542;51.700;8.846;2023-05-29T02:08:44;9.10;99.90
50586;DHT22;36542;51.700;8.846;2023-05-29T02:11:10;9.00;99.90
50586;DHT22;36542;51.700;8.846;2023-05-29T02:13:35;9.00;99.90
50586;DHT22;36542;51.700;8.846;2023-05-29T02:16:01;9.00;99.90
50586;DHT22;36542;51.700;8.846;2023-05-29T02:18:26;8.90;99.90
50586;DHT22;36542;51.700;8.846;2023-05-29T02:20:52;8.90;99.90
50586;DHT22;36542;51.700;8.846;2023-05-29T02:23:18;9.00;99.90
50586;DHT22;36542;51.700;8.846;2023-05-29T02:25:44;8.90;99.90
50586;DHT22;36542;51.700;8.846;2023-05-29T02:28:10;8.90;99.90
50586;DHT22;36542;51.700;8.846;2023-05-29T02:30:36;8.80;99.90
50586;DHT22;36542;51.700;8.846;2023-05-29T02:33:01;8.80;99.90
50586;DHT22;36542;51.700;8.846;2023-05-29T02:35:27;8.80;99.90
50586;DHT22;36542;51.700;8.846;2023-05-29T02:37:53;8.80;99.90
50586;DHT22;36542;51.700;8.846;2023-05-29T02:40:19;8.80;99.90
50586;DHT22;36542;51.700;8.846;2023-05-29T02:42:45;8.90;99.90
50586;DHT22;36542;51.700;8.846;2023-05-29T02:45:10;9.00;99.90
50586;DHT22;36542;51.700;8.846;2023-05-29T02:47:36;8.90;99.90
50586;DHT22;36542;51.700;8.846;2023-05-29T02:50:03;9.00;99.90
50586;DHT22;36542;51.700;8.846;2023-05-29T02:52:29;9.00;99.90
50586;DHT22;36542;51.700;8.846;2023-05-29T02:54:58;9.00;99.90
50586;DHT22;36542;51.700;8.846;2023-05-29T02:57:24;8.90;99.90
50586;DHT22;36542;51.700;8.846;2023-05-29T02:59:50;9.00;99.90
50586;DHT22;36542;51.700;8.846;2023-05-29T03:02:17;9.10;99.90
50586;DHT22;36542;51.700;8.846;2023-05-29T03:04:42;9.00;99.90
50586;DHT22;36542;51.700;8.846;2023-05-29T03:07:07;8.90;99.90
50586;DHT22;36542;51.700;8.846;2023-05-29T03:09:35;8.80;99.90
50586;DHT22;36542;51.700;8.846;2023-05-29T03:12:00;8.70;99.90
50586;DHT22;36542;51.700;8.846;2023-05-29T03:14:26;8.70;99.90
50586;DHT22;36542;51.700;8.846;2023-05-29T03:16:53;8.70;99.90
50586;DHT22;36542;51.700;8.846;2023-05-29T03:19:18;8.70;99.90
50586;DHT22;36542;51.700;8.846;2023-05-29T03:21:44;8.70;99.90
50586;DHT22;36542;51.700;8.846;2023-05-29T03:24:10;8.60;99.90
50586;DHT22;36542;51.700;8.846;2023-05-29T03:26:36;8.70;99.90
50586;DHT22;36542;51.700;8.846;2023-05-29T03:29:02;8.60;99.90
50586;DHT22;36542;51.700;8.846;2023-05-29T03:31:27;8.60;99.90
50586;DHT22;36542;51.700;8.846;2023-05-29T03:33:53;8.60;99.90
50586;DHT22;36542;51.700;8.846;2023-05-29T03:36:18;8.60;99.90
50586;DHT22;36542;51.700;8.846;2023-05-29T03:38:44;8.50;99.90
50586;DHT22;36542;51.700;8.846;2023-05-29T03:41:10;8.70;99.90
50586;DHT22;36542;51.700;8.846;2023-05-29T03:43:36;8.70;99.90
50586;DHT22;36542;51.700;8.846;2023-05-29T03:46:01;8.70;99.90
50586;DHT22;36542;51.700;8.846;2023-05-29T03:48:27;8.70;99.90
50586;DHT22;36542;51.700;8.846;2023-05-29T03:50:53;8.80;99.90
50586;DHT22;36542;51.700;8.846;2023-05-29T03:53:18;8.80;99.90
50586;DHT22;36542;51.700;8.846;2023-05-29T03:55:44;8.80;99.90
50586;DHT22;36542;51.700;8.846;2023-05-29T03:58:09;8.90;99.90
50586;DHT22;36542;51.700;8.846;2023-05-29T04:00:37;9.00;99.90
50586;DHT22;36542;51.700;8.846;2023-05-29T04:03:03;9.10;99.90
50586;DHT22;36542;51.700;8.846;2023-05-29T04:05:28;9.10;99.90
50586;DHT22;36542;51.700;8.846;2023-05-29T04:07:55;9.00;99.90
50586;DHT22;36542;51.700;8.846;2023-05-29T04:10:20;9.10;99.90
50586;DHT22;36542;51.700;8.846;2023-05-29T04:12:46;9.20;99.90
50586;DHT22;36542;51.700;8.846;2023-05-29T04:15:11;9.20;99.90
50586;DHT22;36542;51.700;8.846;2023-05-29T04:17:37;9.30;99.90
50586;DHT22;36542;51.700;8.846;2023-05-29T04:20:03;9.40;99.90
50586;DHT22;36542;51.700;8.846;2023-05-29T04:22:37;9.50;99.90
50586;DHT22;36542;51.700;8.846;2023-05-29T04:25:03;9.50;99.90
50586;DHT22;36542;51.700;8.846;2023-05-29T04:27:32;9.50;99.90
50586;DHT22;36542;51.700;8.846;2023-05-29T04:30:05;9.50;99.90
50586;DHT22;36542;51.700;8.846;2023-05-29T04:32:31;9.40;99.90
50586;DHT22;36542;51.700;8.846;2023-05-29T04:34:58;9.60;99.90
50586;DHT22;36542;51.700;8.846;2023-05-29T04:37:30;9.60;99.90
50586;DHT22;36542;51.700;8.846;2023-05-29T04:39:56;9.60;99.90
50586;DHT22;36542;51.700;8.846;2023-05-29T04:42:23;9.70;99.90
50586;DHT22;36542;51.700;8.846;2023-05-29T04:44:50;9.80;99.90
50586;DHT22;36542;51.700;8.846;2023-05-29T04:47:18;9.80;99.90
50586;DHT22;36542;51.700;8.846;2023-05-29T04:49:44;9.90;99.90
50586;DHT22;36542;51.700;8.846;2023-05-29T04:52:14;10.00;99.90
50586;DHT22;36542;51.700;8.846;2023-05-29T04:54:40;10.20;99.90
50586;DHT22;36542;51.700;8.846;2023-05-29T04:57:05;10.30;99.90
50586;DHT22;36542;51.700;8.846;2023-05-29T04:59:31;10.40;99.90
50586;DHT22;36542;51.700;8.846;2023-05-29T05:01:57;10.50;99.90
50586;DHT22;36542;51.700;8.846;2023-05-29T05:04:22;10.60;99.90
50586;DHT22;36542;51.700;8.846;2023-05-29T05:06:48;10.70;99.90
50586;DHT22;36542;51.700;8.846;2023-05-29T05:09:13;10.90;99.90
50586;DHT22;36542;51.700;8.846;2023-05-29T05:11:39;10.90;99.90
50586;DHT22;36542;51.700;8.846;2023-05-29T05:14:04;10.80;99.90
50586;DHT22;36542;51.700;8.846;2023-05-29T05:16:30;10.80;99.90
50586;DHT22;36542;51.700;8.846;2023-05-29T05:18:55;10.90;99.90
50586;DHT22;36542;51.700;8.846;2023-05-29T05:21:21;10.90;99.90
50586;DHT22;36542;51.700;8.846;2023-05-29T05:23:46;11.00;99.90
50586;DHT22;36542;51.700;8.846;2023-05-29T05:26:12;10.90;99.90
50586;DHT22;36542;51.700;8.846;2023-05-29T05:28:37;11.20;99.90
50586;DHT22;36542;51.700;8.846;2023-05-29T05:31:03;12.30;99.90
50586;DHT22;36542;51.700;8.846;2023-05-29T05:33:28;13.70;99.90
50586;DHT22;36542;51.700;8.846;2023-05-29T05:35:54;14.50;99.90
50586;DHT22;36542;51.700;8.846;2023-05-29T05:38:19;14.90;99.90
50586;DHT22;36542;51.700;8.846;2023-05-29T05:40:45;15.90;99.90
50586;DHT22;36542;51.700;8.846;2023-05-29T05:43:10;16.80;99.90
50586;DHT22;36542;51.700;8.846;2023-05-29T05:45:36;17.10;99.90
50586;DHT22;36542;51.700;8.846;2023-05-29T05:48:07;17.60;99.90
50586;DHT22;36542;51.700;8.846;2023-05-29T05:50:33;17.00;99.90
50586;DHT22;36542;51.700;8.846;2023-05-29T05:52:58;17.20;99.90
50586;DHT22;36542;51.700;8.846;2023-05-29T05:55:24;17.30;99.90
50586;DHT22;36542;51.700;8.846;2023-05-29T05:57:51;17.60;99.90
50586;DHT22;36542;51.700;8.846;2023-05-29T06:00:17;18.00;99.90
50586;DHT22;36542;51.700;8.846;2023-05-29T06:02:43;18.70;99.90
50586;DHT22;36542;51.700;8.846;2023-05-29T06:05:10;19.10;99.90
50586;DHT22;36542;51.700;8.846;2023-05-29T06:07:36;19.70;99.90
50586;DHT22;36542;51.700;8.846;2023-05-29T06:10:03;20.40;99.90
50586;DHT22;36542;51.700;8.846;2023-05-29T06:12:29;21.30;99.90
50586;DHT22;36542;51.700;8.846;2023-05-29T06:14:54;20.30;99.90
50586;DHT22;36542;51.700;8.846;2023-05-29T06:17:20;21.60;99.90
50586;DHT22;36542;51.700;8.846;2023-05-29T06:19:47;23.10;99.00
50586;DHT22;36542;51.700;8.846;2023-05-29T06:22:14;24.10;98.10
50586;DHT22;36542;51.700;8.846;2023-05-29T06:24:40;23.60;97.30
50586;DHT22;36542;51.700;8.846;2023-05-29T06:27:06;21.80;98.70
50586;DHT22;36542;51.700;8.846;2023-05-29T06:29:32;20.50;99.90
50586;DHT22;36542;51.700;8.846;2023-05-29T06:31:57;19.90;99.90
50586;DHT22;36542;51.700;8.846;2023-05-29T06:34:23;19.50;99.90
50586;DHT22;36542;51.700;8.846;2023-05-29T06:36:49;19.90;99.90
50586;DHT22;36542;51.700;8.846;2023-05-29T06:39:14;19.30;99.90
50586;DHT22;36542;51.700;8.846;2023-05-29T06:41:40;19.20;99.90
50586;DHT22;36542;51.700;8.846;2023-05-29T06:44:06;19.00;99.90
50586;DHT22;36542;51.700;8.846;2023-05-29T06:46:31;19.00;99.90
50586;DHT22;36542;51.700;8.846;2023-05-29T06:48:57;20.20;99.90
50586;DHT22;36542;51.700;8.846;2023-05-29T06:51:22;20.70;99.90
50586;DHT22;36542;51.700;8.846;2023-05-29T06:53:48;20.50;99.80
50586;DHT22;36542;51.700;8.846;2023-05-29T06:56:13;21.50;99.80
50586;DHT22;36542;51.700;8.846;2023-05-29T06:58:39;21.40;99.40
50586;DHT22;36542;51.700;8.846;2023-05-29T07:01:05;19.60;99.90
50586;DHT22;36542;51.700;8.846;2023-05-29T07:03:31;19.30;99.90
50586;DHT22;36542;51.700;8.846;2023-05-29T07:05:56;19.90;99.90
50586;DHT22;36542;51.700;8.846;2023-05-29T07:08:23;21.80;99.60
50586;DHT22;36542;51.700;8.846;2023-05-29T07:10:48;23.30;96.80
50586;DHT22;36542;51.700;8.846;2023-05-29T07:13:15;23.90;95.80
50586;DHT22;36542;51.700;8.846;2023-05-29T07:15:41;22.20;96.90
50586;DHT22;36542;51.700;8.846;2023-05-29T07:18:07;20.40;99.90
50586;DHT22;36542;51.700;8.846;2023-05-29T07:20:33;20.60;99.90
50586;DHT22;36542;51.700;8.846;2023-05-29T07:22:58;21.10;99.60
50586;DHT22;36542;51.700;8.846;2023-05-29T07:25:25;19.00;99.90
50586;DHT22;36542;51.700;8.846;2023-05-29T07:27:51;18.80;99.90
50586;DHT22;36542;51.700;8.846;2023-05-29T07:30:17;19.10;99.90
50586;DHT22;36542;51.700;8.846;2023-05-29T07:32:43;19.70;99.90
50586;DHT22;36542;51.700;8.846;2023-05-29T07:35:09;18.50;99.90
50586;DHT22;36542;51.700;8.846;2023-05-29T07:37:34;18.50;99.90
50586;DHT22;36542;51.700;8.846;2023-05-29T07:40:00;18.30;99.90
50586;DHT22;36542;51.700;8.846;2023-05-29T07:42:26;19.20;99.90
50586;DHT22;36542;51.700;8.846;2023-05-29T07:44:51;19.00;99.90
50586;DHT22;36542;51.700;8.846;2023-05-29T07:47:17;19.10;99.90
50586;DHT22;36542;51.700;8.846;2023-05-29T07:49:42;19.70;99.90
50586;DHT22;36542;51.700;8.846;2023-05-29T07:52:08;19.60;99.90
50586;DHT22;36542;51.700;8.846;2023-05-29T07:54:33;18.70;99.90
50586;DHT22;36542;51.700;8.846;2023-05-29T07:56:59;19.70;99.90
50586;DHT22;36542;51.700;8.846;2023-05-29T07:59:25;19.20;99.90
50586;DHT22;36542;51.700;8.846;2023-05-29T08:01:51;18.80;99.90
50586;DHT22;36542;51.700;8.846;2023-05-29T08:04:17;18.80;99.90
50586;DHT22;36542;51.700;8.846;2023-05-29T08:06:42;18.60;99.90
50586;DHT22;36542;51.700;8.846;2023-05-29T08:09:09;18.50;99.90
50586;DHT22;36542;51.700;8.846;2023-05-29T08:11:36;18.40;99.90
50586;DHT22;36542;51.700;8.846;2023-05-29T08:14:01;18.40;99.90
50586;DHT22;36542;51.700;8.846;2023-05-29T08:16:27;19.60;99.90
50586;DHT22;36542;51.700;8.846;2023-05-29T08:18:53;20.60;99.90
50586;DHT22;36542;51.700;8.846;2023-05-29T08:21:18;20.00;99.90
50586;DHT22;36542;51.700;8.846;2023-05-29T08:23:44;19.70;99.90
50586;DHT22;36542;51.700;8.846;2023-05-29T08:26:10;19.30;99.90
50586;DHT22;36542;51.700;8.846;2023-05-29T08:28:35;19.20;99.90
50586;DHT22;36542;51.700;8.846;2023-05-29T08:31:01;21.10;99.90
50586;DHT22;36542;51.700;8.846;2023-05-29T08:33:26;24.00;96.20
50586;DHT22;36542;51.700;8.846;2023-05-29T08:35:52;25.10;94.10
50586;DHT22;36542;51.700;8.846;2023-05-29T08:38:17;23.80;95.90
50586;DHT22;36542;51.700;8.846;2023-05-29T08:40:43;21.80;98.60
50586;DHT22;36542;51.700;8.846;2023-05-29T08:43:21;20.40;99.90
50586;DHT22;36542;51.700;8.846;2023-05-29T08:45:48;22.50;98.60
50586;DHT22;36542;51.700;8.846;2023-05-29T08:48:18;23.20;97.00
50586;DHT22;36542;51.700;8.846;2023-05-29T08:50:46;23.80;96.00
50586;DHT22;36542;51.700;8.846;2023-05-29T08:53:13;22.80;96.80
50586;DHT22;36542;51.700;8.846;2023-05-29T08:55:38;20.60;98.80
50586;DHT22;36542;51.700;8.846;2023-05-29T08:58:05;20.90;99.90
50586;DHT22;36542;51.700;8.846;2023-05-29T09:00:32;20.10;99.90
50586;DHT22;36542;51.700;8.846;2023-05-29T09:02:58;19.70;99.90
50586;DHT22;36542;51.700;8.846;2023-05-29T09:05:25;18.40;99.90
50586;DHT22;36542;51.700;8.846;2023-05-29T09:07:53;18.30;99.90
50586;DHT22;36542;51.700;8.846;2023-05-29T09:10:19;18.50;99.90
50586;DHT22;36542;51.700;8.846;2023-05-29T09:12:46;18.20;99.90
50586;DHT22;36542;51.700;8.846;2023-05-29T09:15:19;18.00;99.90
50586;DHT22;36542;51.700;8.846;2023-05-29T09:17:52;18.20;99.90
50586;DHT22;36542;51.700;8.846;2023-05-29T09:20:18;18.00;99.90
50586;DHT22;36542;51.700;8.846;2023-05-29T09:22:57;17.90;99.90
50586;DHT22;36542;51.700;8.846;2023-05-29T09:25:25;18.10;99.90
50586;DHT22;36542;51.700;8.846;2023-05-29T09:27:58;17.90;99.90
50586;DHT22;36542;51.700;8.846;2023-05-29T09:30:46;17.70;99.90
50586;DHT22;36542;51.700;8.846;2023-05-29T09:33:15;17.80;99.90
50586;DHT22;36542;51.700;8.846;2023-05-29T09:35:45;17.90;99.90
50586;DHT22;36542;51.700;8.846;2023-05-29T09:38:13;17.80;99.90
50586;DHT22;36542;51.700;8.846;2023-05-29T09:40:39;18.00;99.90
50586;DHT22;36542;51.700;8.846;2023-05-29T09:43:19;18.10;99.90
50586;DHT22;36542;51.700;8.846;2023-05-29T09:45:49;17.50;99.90
50586;DHT22;36542;51.700;8.846;2023-05-29T09:48:17;18.80;99.90
50586;DHT22;36542;51.700;8.846;2023-05-29T09:50:44;20.60;99.90
50586;DHT22;36542;51.700;8.846;2023-05-29T09:53:24;22.00;99.90
50586;DHT22;36542;51.700;8.846;2023-05-29T09:55:51;23.00;99.70
50586;DHT22;36542;51.700;8.846;2023-05-29T09:58:20;23.40;98.80
50586;DHT22;36542;51.700;8.846;2023-05-29T10:00:46;22.30;99.50
50586;DHT22;36542;51.700;8.846;2023-05-29T10:03:13;22.00;99.90
50586;DHT22;36542;51.700;8.846;2023-05-29T10:05:42;20.60;99.90
50586;DHT22;36542;51.700;8.846;2023-05-29T10:08:11;20.50;99.90
50586;DHT22;36542;51.700;8.846;2023-05-29T10:10:42;22.00;99.90
50586;DHT22;36542;51.700;8.846;2023-05-29T10:13:11;24.40;96.40
50586;DHT22;36542;51.700;8.846;2023-05-29T10:15:37;24.30;96.10
50586;DHT22;36542;51.700;8.846;2023-05-29T10:18:11;24.10;95.80
50586;DHT22;36542;51.700;8.846;2023-05-29T10:20:39;23.30;98.40
50586;DHT22;36542;51.700;8.846;2023-05-29T10:23:06;23.50;98.00
50586;DHT22;36542;51.700;8.846;2023-05-29T10:25:35;21.90;98.60
50586;DHT22;36542;51.700;8.846;2023-05-29T10:28:01;22.40;98.30
50586;DHT22;36542;51.700;8.846;2023-05-29T10:30:35;24.00;96.80
50586;DHT22;36542;51.700;8.846;2023-05-29T10:33:24;24.30;96.60
50586;DHT22;36542;51.700;8.846;2023-05-29T10:36:04;25.10;95.20
50586;DHT22;36542;51.700;8.846;2023-05-29T10:38:32;21.50;98.60
50586;DHT22;36542;51.700;8.846;2023-05-29T10:43:49;21.20;99.90
50586;DHT22;36542;51.700;8.846;2023-05-29T10:46:14;20.30;99.90
50586;DHT22;36542;51.700;8.846;2023-05-29T10:48:41;20.60;99.90
50586;DHT22;36542;51.700;8.846;2023-05-29T10:51:07;21.20;99.90
50586;DHT22;36542;51.700;8.846;2023-05-29T10:53:33;19.80;99.90
50586;DHT22;36542;51.700;8.846;2023-05-29T10:55:59;19.30;99.90
50586;DHT22;36542;51.700;8.846;2023-05-29T10:58:26;18.30;99.90
50586;DHT22;36542;51.700;8.846;2023-05-29T11:00:54;17.90;99.90
50586;DHT22;36542;51.700;8.846;2023-05-29T11:06:06;18.50;99.90
50586;DHT22;36542;51.700;8.846;2023-05-29T11:08:43;17.70;99.90
50586;DHT22;36542;51.700;8.846;2023-05-29T11:11:13;18.30;99.90
50586;DHT22;36542;51.700;8.846;2023-05-29T11:13:39;18.90;99.90
50586;DHT22;36542;51.700;8.846;2023-05-29T11:16:14;18.30;99.90
50586;DHT22;36542;51.700;8.846;2023-05-29T11:18:46;18.00;99.90
50586;DHT22;36542;51.700;8.846;2023-05-29T11:24:02;17.70;99.90
50586;DHT22;36542;51.700;8.846;2023-05-29T11:26:29;17.90;99.90
50586;DHT22;36542;51.700;8.846;2023-05-29T11:29:05;18.00;99.90
50586;DHT22;36542;51.700;8.846;2023-05-29T11:31:37;18.30;99.90
50586;DHT22;36542;51.700;8.846;2023-05-29T11:34:03;18.00;99.90
50586;DHT22;36542;51.700;8.846;2023-05-29T11:36:34;18.00;99.90
50586;DHT22;36542;51.700;8.846;2023-05-29T11:39:00;18.10;99.90
50586;DHT22;36542;51.700;8.846;2023-05-29T11:41:26;18.00;99.90
50586;DHT22;36542;51.700;8.846;2023-05-29T11:43:59;18.00;99.90
50586;DHT22;36542;51.700;8.846;2023-05-29T11:46:26;18.30;99.90
50586;DHT22;36542;51.700;8.846;2023-05-29T11:48:53;18.10;99.90
50586;DHT22;36542;51.700;8.846;2023-05-29T11:51:18;18.20;99.90
50586;DHT22;36542;51.700;8.846;2023-05-29T11:53:46;18.10;99.90
50586;DHT22;36542;51.700;8.846;2023-05-29T11:56:12;17.80;99.90
50586;DHT22;36542;51.700;8.846;2023-05-29T11:58:39;17.90;99.90
50586;DHT22;36542;51.700;8.846;2023-05-29T12:01:05;17.90;99.90
50586;DHT22;36542;51.700;8.846;2023-05-29T12:03:40;18.00;99.90
50586;DHT22;36542;51.700;8.846;2023-05-29T12:06:06;18.30;99.90
50586;DHT22;36542;51.700;8.846;2023-05-29T12:08:32;18.10;99.90
50586;DHT22;36542;51.700;8.846;2023-05-29T12:10:58;18.30;99.90
50586;DHT22;36542;51.700;8.846;2023-05-29T12:13:23;18.70;99.90
50586;DHT22;36542;51.700;8.846;2023-05-29T12:15:53;18.30;99.90
50586;DHT22;36542;51.700;8.846;2023-05-29T12:18:19;18.60;99.90
50586;DHT22;36542;51.700;8.846;2023-05-29T12:20:45;18.50;99.90
50586;DHT22;36542;51.700;8.846;2023-05-29T12:23:11;18.50;99.90
50586;DHT22;36542;51.700;8.846;2023-05-29T12:25:37;18.40;99.90
50586;DHT22;36542;51.700;8.846;2023-05-29T12:28:03;18.70;99.90
50586;DHT22;36542;51.700;8.846;2023-05-29T12:30:29;18.70;99.90
50586;DHT22;36542;51.700;8.846;2023-05-29T12:32:56;18.60;99.90
50586;DHT22;36542;51.700;8.846;2023-05-29T12:35:26;18.70;99.90
50586;DHT22;36542;51.700;8.846;2023-05-29T12:38:04;18.80;99.90
50586;DHT22;36542;51.700;8.846;2023-05-29T12:40:31;19.00;99.90
50586;DHT22;36542;51.700;8.846;2023-05-29T12:43:08;18.80;99.90
50586;DHT22;36542;51.700;8.846;2023-05-29T12:45:36;18.60;99.90
50586;DHT22;36542;51.700;8.846;2023-05-29T12:48:03;18.60;99.90
50586;DHT22;36542;51.700;8.846;2023-05-29T12:50:31;18.70;99.90
50586;DHT22;36542;51.700;8.846;2023-05-29T12:53:02;18.90;99.90
50586;DHT22;36542;51.700;8.846;2023-05-29T12:55:29;18.50;99.90
50586;DHT22;36542;51.700;8.846;2023-05-29T12:57:55;18.70;99.90
50586;DHT22;36542;51.700;8.846;2023-05-29T13:00:22;18.90;99.90
50586;DHT22;36542;51.700;8.846;2023-05-29T13:02:48;19.10;99.90
50586;DHT22;36542;51.700;8.846;2023-05-29T13:05:14;19.30;99.90
50586;DHT22;36542;51.700;8.846;2023-05-29T13:07:41;19.30;99.90
50586;DHT22;36542;51.700;8.846;2023-05-29T13:10:07;19.50;99.90
50586;DHT22;36542;51.700;8.846;2023-05-29T13:12:34;19.30;99.90
50586;DHT22;36542;51.700;8.846;2023-05-29T13:14:59;19.90;99.90
50586;DHT22;36542;51.700;8.846;2023-05-29T13:17:25;18.80;99.90
50586;DHT22;36542;51.700;8.846;2023-05-29T13:19:50;18.80;99.90
50586;DHT22;36542;51.700;8.846;2023-05-29T13:22:16;18.70;99.90
50586;DHT22;36542;51.700;8.846;2023-05-29T13:24:41;18.90;99.90
50586;DHT22;36542;51.700;8.846;2023-05-29T13:27:07;19.00;99.90
50586;DHT22;36542;51.700;8.846;2023-05-29T13:29:33;18.90;99.90
50586;DHT22;36542;51.700;8.846;2023-05-29T13:31:59;19.00;99.90
50586;DHT22;36542;51.700;8.846;2023-05-29T13:34:24;19.10;99.90
50586;DHT22;36542;51.700;8.846;2023-05-29T13:36:57;19.00;99.90
50586;DHT22;36542;51.700;8.846;2023-05-29T13:39:22;19.20;99.90
50586;DHT22;36542;51.700;8.846;2023-05-29T13:41:48;19.40;99.90
50586;DHT22;36542;51.700;8.846;2023-05-29T13:44:13;19.30;99.90
50586;DHT22;36542;51.700;8.846;2023-05-29T13:46:39;19.10;99.90
50586;DHT22;36542;51.700;8.846;2023-05-29T13:49:05;19.30;99.90
50586;DHT22;36542;51.700;8.846;2023-05-29T13:51:30;19.70;99.90
50586;DHT22;36542;51.700;8.846;2023-05-29T13:53:55;19.30;99.90
50586;DHT22;36542;51.700;8.846;2023-05-29T13:56:21;19.20;99.90
50586;DHT22;36542;51.700;8.846;2023-05-29T13:58:47;18.90;99.90
50586;DHT22;36542;51.700;8.846;2023-05-29T14:01:13;19.00;99.90
50586;DHT22;36542;51.700;8.846;2023-05-29T14:03:39;19.00;99.90
50586;DHT22;36542;51.700;8.846;2023-05-29T14:06:05;19.00;99.90
50586;DHT22;36542;51.700;8.846;2023-05-29T14:08:31;19.30;99.90
50586;DHT22;36542;51.700;8.846;2023-05-29T14:10:56;19.40;99.90
50586;DHT22;36542;51.700;8.846;2023-05-29T14:13:22;19.60;99.90
50586;DHT22;36542;51.700;8.846;2023-05-29T14:15:47;19.90;99.90
50586;DHT22;36542;51.700;8.846;2023-05-29T14:18:15;20.10;99.90
50586;DHT22;36542;51.700;8.846;2023-05-29T14:20:41;20.00;99.90
50586;DHT22;36542;51.700;8.846;2023-05-29T14:23:06;19.70;99.90
50586;DHT22;36542;51.700;8.846;2023-05-29T14:25:34;19.20;99.90
50586;DHT22;36542;51.700;8.846;2023-05-29T14:28:00;19.40;99.90
50586;DHT22;36542;51.700;8.846;2023-05-29T14:30:25;19.60;99.90
50586;DHT22;36542;51.700;8.846;2023-05-29T14:32:50;18.90;99.90
50586;DHT22;36542;51.700;8.846;2023-05-29T14:35:17;19.50;99.90
50586;DHT22;36542;51.700;8.846;2023-05-29T14:37:42;19.60;99.90
50586;DHT22;36542;51.700;8.846;2023-05-29T14:40:08;19.80;99.90
50586;DHT22;36542;51.700;8.846;2023-05-29T14:42:34;19.50;99.90
50586;DHT22;36542;51.700;8.846;2023-05-29T14:44:59;19.40;99.90
50586;DHT22;36542;51.700;8.846;2023-05-29T14:47:25;19.30;99.90
50586;DHT22;36542;51.700;8.846;2023-05-29T14:49:50;19.40;99.90
50586;DHT22;36542;51.700;8.846;2023-05-29T14:52:16;19.20;99.90
50586;DHT22;36542;51.700;8.846;2023-05-29T14:54:41;19.20;99.90
50586;DHT22;36542;51.700;8.846;2023-05-29T14:57:07;18.90;99.90
50586;DHT22;36542;51.700;8.846;2023-05-29T14:59:32;18.60;99.90
50586;DHT22;36542;51.700;8.846;2023-05-29T15:01:58;19.00;99.90
50586;DHT22;36542;51.700;8.846;2023-05-29T15:04:25;18.70;99.90
50586;DHT22;36542;51.700;8.846;2023-05-29T15:06:51;18.80;99.90
50586;DHT22;36542;51.700;8.846;2023-05-29T15:09:16;18.80;99.90
50586;DHT22;36542;51.700;8.846;2023-05-29T15:11:42;18.70;99.90
50586;DHT22;36542;51.700;8.846;2023-05-29T15:14:08;19.00;99.90
50586;DHT22;36542;51.700;8.846;2023-05-29T15:16:34;18.40;99.90
50586;DHT22;36542;51.700;8.846;2023-05-29T15:19:00;18.60;99.90
50586;DHT22;36542;51.700;8.846;2023-05-29T15:21:25;18.50;99.90
50586;DHT22;36542;51.700;8.846;2023-05-29T15:23:51;18.40;99.90
50586;DHT22;36542;51.700;8.846;2023-05-29T15:26:16;18.50;99.90
50586;DHT22;36542;51.700;8.846;2023-05-29T15:28:42;18.40;99.90
50586;DHT22;36542;51.700;8.846;2023-05-29T15:31:07;18.60;99.90
50586;DHT22;36542;51.700;8.846;2023-05-29T15:33:33;18.60;99.90
50586;DHT22;36542;51.700;8.846;2023-05-29T15:35:58;18.70;99.90
50586;DHT22;36542;51.700;8.846;2023-05-29T15:38:24;19.00;99.90
50586;DHT22;36542;51.700;8.846;2023-05-29T15:40:49;18.90;99.90